Time;durP1;ratioP1;P1;durP2;ratioP2;P2;SDS_P1;SDS_P2;PMS_P1;PMS_P2;Temp;Humidity;BMP_temperature;BMP_pressure;BME280_temperature;BME280_humidity;BME280_pressure;Samples;Min_cycle;Max_cycle;Signal;HPM_P1;HPM_P2
2024/02/27 00:01:07;;;;;;;16.58;7.60;;;;;;;9.48;100.00;99665.63;6247129;28;20049;-75
2024/02/27 00:04:09;;;;;;;19.75;8.82;;;;;;;9.41;100.00;99672.16;6246637;28;20058;-70
2024/02/27 00:07:13;;;;;;;24.30;9.23;;;;;;;9.33;100.00;99674.38;6247689;28;20355;-70
2024/02/27 00:10:16;;;;;;;15.93;8.32;;;;;;;9.26;100.00;99671.34;6246871;28;20064;-70
2024/02/27 00:13:17;;;;;;;20.55;8.82;;;;;;;9.27;100.00;99686.03;6246481;28;20141;-69
2024/02/27 00:16:18;;;;;;;20.98;8.88;;;;;;;9.21;100.00;99684.66;6245897;28;20045;-69
2024/02/27 00:19:24;;;;;;;15.88;8.25;;;;;;;9.17;100.00;99685.75;6246238;28;20474;-69
2024/02/27 00:22:25;;;;;;;18.33;8.45;;;;;;;9.14;100.00;99685.97;6247706;28;20057;-70
2024/02/27 00:25:28;;;;;;;23.67;9.00;;;;;;;9.09;100.00;99680.19;6247411;28;20073;-70
2024/02/27 00:28:33;;;;;;;15.48;8.02;;;;;;;9.04;100.00;99685.69;6263337;28;20138;-70
2024/02/27 00:31:34;;;;;;;18.45;8.48;;;;;;;8.99;100.00;99686.88;6272381;28;20883;-69
2024/02/27 00:34:35;;;;;;;11.70;7.47;;;;;;;8.91;100.00;99689.09;6272156;28;20501;-69
2024/02/27 00:37:36;;;;;;;24.90;8.73;;;;;;;8.80;100.00;99685.38;6271927;28;20053;-71
2024/02/27 00:40:39;;;;;;;16.60;7.40;;;;;;;8.75;100.00;99679.63;6272141;28;20108;-69
2024/02/27 00:43:40;;;;;;;14.32;8.23;;;;;;;8.65;100.00;99684.53;6272094;28;20084;-75
2024/02/27 00:46:42;;;;;;;13.43;7.13;;;;;;;8.59;100.00;99682.28;6271822;28;20098;-75
2024/02/27 00:49:43;;;;;;;16.65;7.82;;;;;;;8.50;100.00;99677.59;6271727;28;20500;-75
2024/02/27 00:52:44;;;;;;;17.52;7.68;;;;;;;8.49;100.00;99670.75;6270694;28;20053;-75
2024/02/27 00:55:44;;;;;;;16.38;7.85;;;;;;;8.42;100.00;99680.66;6271845;28;20144;-75
2024/02/27 00:58:45;;;;;;;18.38;7.82;;;;;;;8.40;100.00;99676.44;6271948;28;20170;-75
2024/02/27 01:01:46;;;;;;;15.05;7.28;;;;;;;8.34;100.00;99674.19;6263953;28;20054;-74
2024/02/27 01:04:47;;;;;;;13.95;7.57;;;;;;;8.29;100.00;99682.25;6247309;28;20061;-69
2024/02/27 01:07:48;;;;;;;13.40;7.15;;;;;;;8.25;100.00;99680.75;6246869;28;20119;-69
2024/02/27 01:10:49;;;;;;;13.23;7.38;;;;;;;8.21;100.00;99680.09;6246863;28;20050;-69
2024/02/27 01:13:51;;;;;;;13.90;7.13;;;;;;;8.19;100.00;99681.09;6246972;28;20462;-69
2024/02/27 01:16:54;;;;;;;10.10;6.63;;;;;;;8.20;100.00;99678.44;6245730;28;20081;-73
2024/02/27 01:19:55;;;;;;;13.57;7.72;;;;;;;8.19;100.00;99676.75;6245727;28;20052;-74
2024/02/27 01:22:58;;;;;;;14.68;6.88;;;;;;;8.21;100.00;99674.88;6245713;28;20054;-74
2024/02/27 01:25:59;;;;;;;15.10;7.60;;;;;;;8.15;100.00;99672.63;6245380;28;20410;-74
2024/02/27 01:29:00;;;;;;;12.63;6.75;;;;;;;8.13;100.00;99678.84;6245630;28;20058;-74
2024/02/27 01:32:00;;;;;;;13.57;7.63;;;;;;;8.09;100.00;99675.59;6246767;28;20502;-74
2024/02/27 01:35:01;;;;;;;15.57;7.32;;;;;;;8.00;100.00;99671.75;6245358;28;20111;-74
2024/02/27 01:38:02;;;;;;;14.43;8.23;;;;;;;7.99;100.00;99669.22;6246695;28;20053;-74
2024/02/27 01:41:03;;;;;;;14.95;8.32;;;;;;;8.00;100.00;99673.53;6246625;28;20087;-74
2024/02/27 01:44:09;;;;;;;15.55;7.60;;;;;;;7.97;100.00;99665.88;6244530;28;20135;-74
2024/02/27 01:47:10;;;;;;;14.77;7.57;;;;;;;7.94;100.00;99676.47;6245836;28;20586;-75
2024/02/27 01:50:11;;;;;;;15.80;7.90;;;;;;;7.93;100.00;99674.78;6248835;28;20053;-75
2024/02/27 01:53:13;;;;;;;13.95;7.10;;;;;;;7.95;100.00;99667.72;6251084;28;20136;-75
2024/02/27 01:56:17;;;;;;;15.18;7.40;;;;;;;7.94;100.00;99673.88;6251196;28;20090;-75
2024/02/27 01:59:21;;;;;;;12.32;6.82;;;;;;;7.96;100.00;99670.25;6249640;28;20481;-75
2024/02/27 02:02:24;;;;;;;15.20;7.70;;;;;;;8.00;100.00;99669.16;6249473;28;20196;-75
2024/02/27 02:05:25;;;;;;;11.85;7.13;;;;;;;8.01;100.00;99670.00;6249710;28;20053;-69
2024/02/27 02:08:27;;;;;;;17.00;7.70;;;;;;;8.04;100.00;99668.06;6250573;28;20053;-70
2024/02/27 02:11:28;;;;;;;;;;;;;;;8.05;100.00;99674.09;6249983;28;20085;-69
2024/02/27 02:14:31;;;;;;;13.60;7.60;;;;;;;8.02;100.00;99671.69;6250407;28;19921;-69
2024/02/27 02:17:33;;;;;;;13.63;6.95;;;;;;;8.03;100.00;99681.13;6250409;28;20101;-69
2024/02/27 02:20:39;;;;;;;10.73;6.70;;;;;;;7.98;100.00;99676.19;6250206;28;20050;-69
2024/02/27 02:23:41;;;;;;;14.88;6.75;;;;;;;7.95;100.00;99679.00;6250655;28;20145;-69
2024/02/27 02:26:42;;;;;;;;;;;;;;;7.97;100.00;99684.94;6249496;28;20136;-69
2024/02/27 02:29:43;;;;;;;13.80;6.63;;;;;;;7.97;100.00;99687.53;6250084;28;19925;-70
2024/02/27 02:32:50;;;;;;;10.05;6.38;;;;;;;8.02;100.00;99677.69;6248891;28;20061;-69
2024/02/27 02:35:51;;;;;;;17.55;7.47;;;;;;;8.07;100.00;99680.03;6249026;28;20462;-69
2024/02/27 02:38:54;;;;;;;12.57;7.07;;;;;;;8.14;100.00;99680.53;6249983;28;20103;-70
2024/02/27 02:41:58;;;;;;;19.88;6.95;;;;;;;8.19;100.00;99687.13;6250061;28;20053;-69
2024/02/27 02:44:59;;;;;;;11.95;7.32;;;;;;;8.22;100.00;99681.78;6249972;28;20050;-69
2024/02/27 02:48:00;;;;;;;12.02;6.78;;;;;;;8.31;100.00;99684.78;6249698;28;20061;-69
2024/02/27 02:51:01;;;;;;;10.30;6.72;;;;;;;8.42;100.00;99685.00;6249778;28;20053;-69
2024/02/27 02:54:02;;;;;;;11.70;6.90;;;;;;;8.47;100.00;99693.41;6249599;28;20159;-69
2024/02/27 02:57:05;;;;;;;12.80;6.75;;;;;;;8.55;100.00;99695.56;6249753;28;20056;-69
2024/02/27 03:00:07;;;;;;;15.13;6.22;;;;;;;8.62;100.00;99707.25;6249247;28;20140;-69
2024/02/27 03:03:08;;;;;;;11.98;6.68;;;;;;;8.62;100.00;99699.47;6248176;28;20060;-70
2024/02/27 03:06:09;;;;;;;9.43;5.97;;;;;;;8.66;100.00;99704.38;6281257;28;20077;-74
2024/02/27 03:09:12;;;;;;;12.35;6.00;;;;;;;8.74;100.00;99711.75;6248301;28;20095;-74
2024/02/27 03:12:13;;;;;;;10.75;5.88;;;;;;;8.81;100.00;99714.81;6249165;28;20477;-74
2024/02/27 03:15:14;;;;;;;9.10;5.53;;;;;;;8.88;100.00;99721.34;6249292;28;20107;-74
2024/02/27 03:18:14;;;;;;;15.10;6.50;;;;;;;8.95;100.00;99720.03;6248418;28;20050;-74
2024/02/27 03:21:15;;;;;;;10.57;6.35;;;;;;;8.99;100.00;99713.72;6248233;28;20490;-74
2024/02/27 03:24:16;;;;;;;9.80;5.65;;;;;;;9.02;100.00;99718.75;6248804;28;20417;-75
2024/02/27 03:27:17;;;;;;;11.98;5.95;;;;;;;9.07;100.00;99713.28;6248920;28;20057;-74
2024/02/27 03:30:18;;;;;;;12.40;5.70;;;;;;;9.09;100.00;99711.41;6248127;28;20053;-69
2024/02/27 03:33:19;;;;;;;14.55;6.03;;;;;;;9.13;100.00;99718.13;6248777;28;20076;-69
2024/02/27 03:36:19;;;;;;;10.63;5.95;;;;;;;9.15;100.00;99721.47;6248303;28;20071;-70
2024/02/27 03:39:20;;;;;;;12.70;6.70;;;;;;;9.17;100.00;99719.59;6247741;28;20140;-69
2024/02/27 03:42:21;;;;;;;18.75;5.90;;;;;;;9.21;100.00;99728.91;6247946;28;20046;-69
2024/02/27 03:45:22;;;;;;;13.75;6.38;;;;;;;9.25;100.00;99733.00;6247205;28;20061;-75
2024/02/27 03:48:23;;;;;;;12.60;6.07;;;;;;;9.30;100.00;99726.66;6247076;28;20492;-70
2024/02/27 03:51:23;;;;;;;12.30;6.03;;;;;;;9.30;100.00;99727.50;6247245;28;20465;-70
2024/02/27 03:54:24;;;;;;;12.93;5.72;;;;;;;9.33;100.00;99726.47;6247115;28;20053;-70
2024/02/27 03:57:25;;;;;;;11.82;6.53;;;;;;;9.33;100.00;99723.88;6248211;28;20104;-69
2024/02/27 04:00:26;;;;;;;11.30;6.13;;;;;;;9.35;100.00;99728.06;6246894;28;20056;-69
2024/02/27 04:03:26;;;;;;;12.52;6.13;;;;;;;9.35;100.00;99727.22;6246612;28;20107;-75
2024/02/27 04:06:27;;;;;;;16.65;6.93;;;;;;;9.36;100.00;99729.72;6246779;28;20378;-74
2024/02/27 04:09:31;;;;;;;14.07;6.43;;;;;;;9.40;100.00;99732.97;6248008;28;20071;-75
2024/02/27 04:12:35;;;;;;;15.73;6.28;;;;;;;9.47;100.00;99734.25;6247353;28;20059;-69
2024/02/27 04:15:36;;;;;;;9.95;5.88;;;;;;;9.54;100.00;99732.16;6246463;28;20092;-69
2024/02/27 04:18:37;;;;;;;13.40;6.47;;;;;;;9.56;100.00;99735.50;6246504;28;20046;-69
2024/02/27 04:21:38;;;;;;;15.10;6.95;;;;;;;9.59;100.00;99733.50;6251577;28;20460;-69
2024/02/27 04:24:41;;;;;;;10.80;6.10;;;;;;;9.58;100.00;99731.03;6258456;28;20099;-69
2024/02/27 04:27:42;;;;;;;13.27;6.57;;;;;;;9.58;100.00;99733.63;6269119;28;20056;-69
2024/02/27 04:30:42;;;;;;;12.85;6.20;;;;;;;9.60;100.00;99735.19;6254157;28;20053;-69
2024/02/27 04:33:43;;;;;;;10.52;5.70;;;;;;;9.61;100.00;99742.06;6260726;28;20119;-69
2024/02/27 04:36:46;;;;;;;12.00;6.63;;;;;;;9.63;100.00;99739.38;6265450;28;20041;-69
2024/02/27 04:39:47;;;;;;;11.80;6.25;;;;;;;9.62;100.00;99735.94;6248123;28;20051;-69
2024/02/27 04:42:48;;;;;;;19.20;6.57;;;;;;;9.61;100.00;99742.06;6262941;28;20470;-69
2024/02/27 04:45:48;;;;;;;10.85;6.22;;;;;;;9.62;100.00;99748.13;6270701;28;20060;-69
2024/02/27 04:48:51;;;;;;;10.55;6.85;;;;;;;9.61;100.00;99747.28;6271703;28;20098;-69
2024/02/27 04:51:52;;;;;;;10.80;7.13;;;;;;;9.62;100.00;99748.13;6256694;28;20049;-69
2024/02/27 04:54:58;;;;;;;10.98;6.80;;;;;;;9.65;100.00;99753.97;6262413;28;20072;-70
2024/02/27 04:57:59;;;;;;;11.88;7.03;;;;;;;9.66;100.00;99760.88;6270350;28;20045;-75
2024/02/27 05:00:59;;;;;;;10.07;6.03;;;;;;;9.70;100.00;99761.53;6265308;28;20061;-75
2024/02/27 05:04:00;;;;;;;13.82;6.10;;;;;;;9.69;100.00;99765.03;6271632;28;20053;-75
2024/02/27 05:07:01;;;;;;;9.73;6.13;;;;;;;9.74;100.00;99765.63;6270475;28;20055;-75
2024/02/27 05:10:04;;;;;;;15.88;6.88;;;;;;;9.78;100.00;99772.31;6247225;28;20049;-75
2024/02/27 05:13:05;;;;;;;15.18;6.32;;;;;;;9.79;100.00;99766.16;6247038;28;20057;-75
2024/02/27 05:16:09;;;;;;;12.52;6.22;;;;;;;9.82;100.00;99765.97;6263381;28;20126;-75
2024/02/27 05:19:09;;;;;;;18.65;7.28;;;;;;;9.79;100.00;99768.75;6270483;28;20507;-75
2024/02/27 05:22:10;;;;;;;11.85;5.90;;;;;;;9.84;100.00;99768.47;6247957;28;20058;-69
2024/02/27 05:25:11;;;;;;;10.43;5.97;;;;;;;9.78;100.00;99774.06;6248045;28;20053;-70
2024/02/27 05:28:12;;;;;;;11.10;5.72;;;;;;;9.88;100.00;99778.63;6251549;28;20456;-69
2024/02/27 05:31:39;;;;;;;13.32;6.05;;;;;;;9.89;100.00;99775.06;6257148;28;20080;-69
2024/02/27 05:34:42;;;;;;;11.27;5.40;;;;;;;9.93;100.00;99787.91;6255293;28;20103;-69
2024/02/27 05:37:43;;;;;;;14.70;6.60;;;;;;;9.92;100.00;99784.47;6253063;28;20481;-70
2024/02/27 05:40:44;;;;;;;18.67;6.35;;;;;;;9.95;100.00;99786.06;6255075;28;20164;-74
2024/02/27 05:43:46;;;;;;;13.90;5.88;;;;;;;10.00;100.00;99795.25;6250664;28;20049;-74
2024/02/27 05:46:46;;;;;;;14.93;5.95;;;;;;;10.03;100.00;99795.06;6267416;28;20048;-74
2024/02/27 05:49:49;;;;;;;9.40;5.93;;;;;;;10.16;100.00;99799.50;6256156;28;20059;-74
2024/02/27 05:52:50;;;;;;;19.35;6.50;;;;;;;10.21;100.00;99808.72;6256437;28;20057;-75
2024/02/27 05:55:51;;;;;;;11.38;6.15;;;;;;;10.27;100.00;99807.47;6249785;28;20077;-74
2024/02/27 05:58:53;;;;;;;11.00;6.28;;;;;;;10.32;100.00;99802.84;6264884;28;20037;-74
2024/02/27 06:01:54;;;;;;;12.82;6.97;;;;;;;10.38;100.00;99814.66;6273504;28;20057;-75
2024/02/27 06:04:55;;;;;;;11.27;5.82;;;;;;;10.40;100.00;99805.81;6257831;28;20052;-74
2024/02/27 06:07:55;;;;;;;9.85;5.55;;;;;;;10.44;100.00;99815.09;6269350;28;20052;-74
2024/02/27 06:10:56;;;;;;;15.90;5.88;;;;;;;10.41;100.00;99814.44;6273465;28;20087;-75
2024/02/27 06:13:59;;;;;;;11.07;5.78;;;;;;;10.57;99.27;99822.13;6268740;28;20056;-75
2024/02/27 06:17:00;;;;;;;8.07;5.32;;;;;;;10.63;99.63;99822.56;6274375;28;20048;-74
2024/02/27 06:20:04;;;;;;;8.38;5.07;;;;;;;10.73;98.79;99829.78;6268872;28;20084;-69
2024/02/27 06:23:04;;;;;;;11.95;5.75;;;;;;;10.83;98.67;99830.84;6251429;28;20041;-70
2024/02/27 06:26:09;;;;;;;11.57;5.95;;;;;;;10.88;98.38;99834.00;6263192;28;20459;-70
2024/02/27 06:29:09;;;;;;;12.35;6.18;;;;;;;10.83;98.07;99843.91;6252062;28;20570;-75
2024/02/27 06:32:10;;;;;;;12.32;5.20;;;;;;;10.95;98.17;99835.28;6261709;28;21315;-72
2024/02/27 06:35:11;;;;;;;8.68;5.53;;;;;;;10.98;97.56;99853.34;6247449;28;20052;-74
2024/02/27 06:38:12;;;;;;;10.43;6.00;;;;;;;11.09;96.97;99860.47;6247515;28;20458;-75
2024/02/27 06:41:13;;;;;;;13.35;5.68;;;;;;;11.12;96.53;99847.22;6248686;28;20571;-69
2024/02/27 06:44:13;;;;;;;10.55;5.88;;;;;;;11.10;96.38;99859.56;6247825;28;20458;-69
2024/02/27 06:47:17;;;;;;;12.75;7.15;;;;;;;11.12;97.88;99862.03;6247601;28;20525;-74
2024/02/27 06:50:18;;;;;;;11.85;6.47;;;;;;;11.20;96.44;99864.97;6247737;28;20054;-74
2024/02/27 06:53:19;;;;;;;9.70;5.70;;;;;;;11.27;96.40;99868.88;6247283;28;20105;-75
2024/02/27 06:56:20;;;;;;;16.33;6.63;;;;;;;11.33;95.34;99871.06;6248517;28;20056;-70
2024/02/27 06:59:20;;;;;;;13.35;6.80;;;;;;;11.35;95.38;99879.63;6248511;28;20052;-69
2024/02/27 07:02:21;;;;;;;14.35;6.47;;;;;;;11.45;95.28;99885.09;6246918;28;20136;-74
2024/02/27 07:05:23;;;;;;;12.00;6.47;;;;;;;11.55;94.61;99880.91;6247372;28;20084;-69
2024/02/27 07:08:24;;;;;;;13.95;6.55;;;;;;;11.60;94.63;99878.00;6248267;28;20050;-69
2024/02/27 07:11:26;;;;;;;14.43;6.10;;;;;;;11.65;95.86;99888.94;6248261;28;20107;-70
2024/02/27 07:14:28;;;;;;;;;;;;;;;11.75;93.86;99883.94;6248540;28;20049;-70
2024/02/27 07:17:29;;;;;;;10.35;5.55;;;;;;;11.86;91.74;99882.25;6247995;28;19921;-71
2024/02/27 07:20:31;;;;;;;11.80;6.38;;;;;;;11.99;93.47;99895.34;6246758;28;20504;-71
2024/02/27 07:23:32;;;;;;;11.25;5.60;;;;;;;12.11;91.57;99888.44;6248081;28;20085;-69
2024/02/27 07:26:32;;;;;;;14.48;6.35;;;;;;;12.17;91.76;99887.16;6246826;28;20055;-70
2024/02/27 07:29:33;;;;;;;10.15;5.47;;;;;;;12.24;90.75;99899.69;6248022;28;20056;-70
2024/02/27 07:32:34;;;;;;;16.17;6.55;;;;;;;12.42;90.49;99901.97;6247754;28;20140;-70
2024/02/27 07:35:34;;;;;;;14.43;7.50;;;;;;;12.48;89.30;99902.38;6247397;28;20053;-75
2024/02/27 07:38:35;;;;;;;16.48;7.00;;;;;;;12.59;89.04;99900.75;6247517;28;20037;-75
2024/02/27 07:41:38;;;;;;;12.98;7.03;;;;;;;12.70;89.30;99900.81;6246036;28;20424;-75
2024/02/27 07:44:38;;;;;;;12.38;6.72;;;;;;;12.81;87.46;99903.50;6247392;28;20564;-75
2024/02/27 07:47:40;;;;;;;11.80;6.97;;;;;;;12.89;85.87;99895.94;6246496;28;20056;-75
2024/02/27 07:50:41;;;;;;;12.00;6.27;;;;;;;13.03;86.71;99899.31;6247444;28;20049;-75
2024/02/27 07:53:42;;;;;;;12.23;5.88;;;;;;;13.15;86.02;99901.00;6246062;28;20282;-75
2024/02/27 07:56:43;;;;;;;12.82;6.45;;;;;;;13.29;85.07;99906.09;6246934;28;20049;-75
2024/02/27 07:59:44;;;;;;;12.13;6.68;;;;;;;13.36;84.45;99900.41;6245990;28;20061;-75
2024/02/27 08:02:45;;;;;;;11.73;6.93;;;;;;;13.42;85.26;99900.75;6245452;28;20057;-75
2024/02/27 08:05:45;;;;;;;15.48;7.93;;;;;;;13.55;83.44;99898.06;6247108;28;20049;-75
2024/02/27 08:08:46;;;;;;;16.50;7.07;;;;;;;13.55;83.82;99899.84;6247035;28;20068;-74
2024/02/27 08:11:47;;;;;;;13.00;7.28;;;;;;;13.64;82.75;99901.78;6245776;28;20049;-74
2024/02/27 08:14:48;;;;;;;11.80;6.97;;;;;;;13.68;82.83;99897.97;6256045;28;20052;-75
2024/02/27 08:17:48;;;;;;;11.40;6.85;;;;;;;13.86;81.91;99909.66;6271414;28;20051;-75
2024/02/27 08:20:50;;;;;;;13.98;6.90;;;;;;;13.88;81.72;99907.75;6269631;28;20694;-75
2024/02/27 08:23:50;;;;;;;16.35;7.43;;;;;;;14.13;81.06;99908.47;6269987;28;20056;-75
2024/02/27 08:26:51;;;;;;;11.10;6.00;;;;;;;14.21;82.18;99921.00;6270234;28;20474;-75
2024/02/27 08:29:52;;;;;;;11.38;6.28;;;;;;;14.31;80.15;99917.53;6271174;28;20134;-75
2024/02/27 08:32:53;;;;;;;11.43;6.45;;;;;;;14.44;79.26;99906.06;6271203;28;20056;-75
2024/02/27 08:35:53;;;;;;;12.55;6.75;;;;;;;14.46;79.04;99914.66;6271005;28;20057;-75
2024/02/27 08:38:54;;;;;;;15.73;7.28;;;;;;;14.58;79.35;99924.22;6271096;28;20516;-75
2024/02/27 08:41:55;;;;;;;17.20;7.30;;;;;;;14.79;78.66;99911.16;6270880;28;20132;-75
2024/02/27 08:44:56;;;;;;;16.05;6.65;;;;;;;14.86;77.23;99921.97;6269898;28;20048;-75
2024/02/27 08:47:57;;;;;;;15.20;6.55;;;;;;;15.07;77.97;99924.66;6269699;28;20080;-75
2024/02/27 08:51:00;;;;;;;11.80;6.32;;;;;;;15.23;75.28;99919.78;6269649;28;20052;-74
2024/02/27 08:54:03;;;;;;;12.75;5.93;;;;;;;15.37;75.32;99920.47;6269544;28;20057;-75
2024/02/27 08:57:04;;;;;;;13.50;6.15;;;;;;;15.49;74.71;99916.81;6269500;28;20132;-75
2024/02/27 09:00:06;;;;;;;13.40;6.35;;;;;;;15.83;72.34;99914.81;6276026;28;20416;-75
2024/02/27 09:03:07;;;;;;;15.40;6.82;;;;;;;16.19;72.67;99912.63;6277531;28;20052;-75
2024/02/27 09:06:11;;;;;;;18.55;9.35;;;;;;;16.44;69.21;99908.69;6278897;28;20072;-75
2024/02/27 09:09:12;;;;;;;21.52;9.85;;;;;;;16.56;67.99;99912.03;6279070;28;20053;-75
2024/02/27 09:12:13;;;;;;;11.98;7.07;;;;;;;17.10;67.39;99910.72;6277759;28;20056;-75
2024/02/27 09:15:15;;;;;;;11.45;6.43;;;;;;;17.41;66.00;99909.75;6278856;28;20060;-75
2024/02/27 09:18:16;;;;;;;11.23;5.55;;;;;;;17.65;64.15;99909.28;6277539;28;20049;-75
2024/02/27 09:21:17;;;;;;;13.00;5.70;;;;;;;17.66;62.45;99901.19;6277516;28;20155;-75
2024/02/27 09:24:18;;;;;;;17.80;5.38;;;;;;;17.72;61.65;99907.72;6277713;28;20049;-75
2024/02/27 09:27:23;;;;;;;9.85;4.35;;;;;;;17.95;60.67;99912.69;6277651;28;20052;-75
2024/02/27 09:30:24;;;;;;;8.32;4.13;;;;;;;18.05;59.72;99905.56;6277676;28;20098;-75
2024/02/27 09:33:25;;;;;;;9.90;4.25;;;;;;;17.87;58.83;99908.13;6278672;28;20056;-75
2024/02/27 09:36:28;;;;;;;7.90;4.40;;;;;;;17.77;57.67;99902.00;6278509;28;20049;-75
2024/02/27 09:39:29;;;;;;;9.65;4.28;;;;;;;18.09;58.67;99905.13;6278608;28;20114;-70
2024/02/27 09:42:30;;;;;;;7.38;3.63;;;;;;;18.44;56.87;99900.91;6277498;28;20398;-70
2024/02/27 09:45:32;;;;;;;7.03;3.77;;;;;;;18.46;57.74;99892.84;6277498;28;20056;-70
2024/02/27 09:48:43;;;;;;;11.97;4.73;;;;;;;18.67;56.74;99898.69;6277295;28;20071;-70
2024/02/27 09:51:48;;;;;;;10.60;4.50;;;;;;;18.80;53.34;99895.72;6277423;28;20080;-71
2024/02/27 09:54:49;;;;;;;7.57;3.92;;;;;;;19.06;53.51;99890.47;6277118;28;20099;-70
2024/02/27 09:57:51;;;;;;;9.27;4.20;;;;;;;19.19;53.38;99887.47;6278564;28;20501;-70
2024/02/27 10:00:55;;;;;;;7.55;4.40;;;;;;;19.31;50.39;99891.53;6276979;28;20049;-70
2024/02/27 10:03:59;;;;;;;11.48;3.38;;;;;;;19.37;47.86;99898.00;6278270;28;20053;-71
2024/02/27 10:07:03;;;;;;;9.63;2.90;;;;;;;19.61;46.97;99889.41;6278366;28;20445;-71
2024/02/27 10:10:04;;;;;;;4.90;3.05;;;;;;;19.77;48.13;99895.78;6275308;28;20049;-70
2024/02/27 10:13:05;;;;;;;10.10;3.53;;;;;;;19.90;47.83;99902.34;6274593;28;20076;-70
2024/02/27 10:16:06;;;;;;;5.18;3.33;;;;;;;19.90;45.75;99893.56;6274263;28;20052;-70
2024/02/27 10:19:07;;;;;;;8.18;3.38;;;;;;;19.92;46.60;99894.25;6273269;28;20055;-70
2024/02/27 10:22:08;;;;;;;5.53;3.33;;;;;;;20.17;47.68;99895.19;6272974;28;20186;-71
2024/02/27 10:25:14;;;;;;;4.70;2.90;;;;;;;20.19;45.70;99895.84;6274108;28;20136;-70
2024/02/27 10:28:18;;;;;;;10.95;4.30;;;;;;;19.99;46.78;99895.25;6274088;28;20045;-70
2024/02/27 10:31:21;;;;;;;8.20;3.63;;;;;;;19.87;48.25;99893.88;6274160;28;20055;-71
2024/02/27 10:34:24;;;;;;;6.03;3.13;;;;;;;19.71;47.16;99889.34;6273802;28;20513;-70
2024/02/27 10:37:28;;;;;;;10.65;3.78;;;;;;;20.15;48.07;99888.38;6273715;28;20041;-70
2024/02/27 10:40:30;;;;;;;5.90;3.60;;;;;;;20.15;47.95;99891.03;6273836;28;20060;-70
2024/02/27 10:43:33;;;;;;;15.60;3.67;;;;;;;20.28;48.59;99888.75;6273853;28;20045;-70
2024/02/27 10:46:37;;;;;;;7.63;2.97;;;;;;;20.02;47.11;99889.66;6272503;28;20048;-75
2024/02/27 10:49:41;;;;;;;8.82;3.33;;;;;;;20.18;47.16;99888.06;6273880;28;20055;-75
2024/02/27 10:52:43;;;;;;;8.38;3.60;;;;;;;20.07;48.06;99889.16;6273575;28;20064;-74
2024/02/27 10:55:48;;;;;;;3.95;2.70;;;;;;;19.94;47.68;99889.63;6273320;28;20527;-74
2024/02/27 10:58:51;;;;;;;4.78;2.55;;;;;;;19.97;45.63;99878.69;6273301;28;20413;-75
2024/02/27 11:01:53;;;;;;;5.10;2.88;;;;;;;19.96;46.39;99878.88;6273211;28;20052;-75
2024/02/27 11:04:55;;;;;;;5.30;2.22;;;;;;;19.95;46.33;99874.56;6273270;28;20049;-75
2024/02/27 11:07:55;;;;;;;;;;;;;;;20.11;46.29;99874.63;6272335;28;20041;-75
2024/02/27 11:10:58;;;;;;;5.47;2.65;;;;;;;19.97;45.11;99881.34;6271837;28;19943;-75
2024/02/27 11:14:06;;;;;;;7.68;2.85;;;;;;;19.87;46.43;99883.28;6273037;28;20057;-75
2024/02/27 11:17:12;;;;;;;6.88;2.78;;;;;;;19.93;47.58;99875.56;6271895;28;20473;-70
2024/02/27 11:20:15;;;;;;;6.18;3.10;;;;;;;19.97;46.23;99869.94;6272927;28;20053;-70
2024/02/27 11:23:16;;;;;;;5.13;2.67;;;;;;;19.97;45.79;99869.94;6271801;28;20049;-75
2024/02/27 11:26:18;;;;;;;7.33;2.80;;;;;;;20.23;44.92;99870.69;6272750;28;20067;-75
2024/02/27 11:29:19;;;;;;;5.63;2.67;;;;;;;20.47;45.46;99866.47;6272769;28;20489;-70
2024/02/27 11:32:20;;;;;;;6.50;2.57;;;;;;;20.52;45.21;99864.97;6271567;28;20049;-70
2024/02/27 11:35:21;;;;;;;6.90;3.07;;;;;;;20.77;45.54;99870.34;6272478;28;20099;-70
2024/02/27 11:38:22;;;;;;;8.95;2.90;;;;;;;20.72;44.35;99867.38;6272609;28;20132;-70
2024/02/27 11:41:25;;;;;;;8.80;2.97;;;;;;;20.83;44.28;99871.53;6272355;28;20059;-75
2024/02/27 11:44:26;;;;;;;7.75;2.55;;;;;;;20.91;44.73;99871.53;6272293;28;20497;-71
2024/02/27 11:47:49;;;;;;;7.00;2.77;;;;;;;21.21;43.49;99870.03;6272288;28;20076;-75
2024/02/27 11:50:49;;;;;;;7.88;2.53;;;;;;;21.06;44.16;99871.69;6271118;28;20128;-75
2024/02/27 11:53:50;;;;;;;4.83;2.50;;;;;;;21.31;43.64;99861.88;6272021;28;20055;-75
2024/02/27 11:56:52;;;;;;;11.60;2.67;;;;;;;21.41;44.09;99859.06;6270689;28;20041;-75
2024/02/27 12:00:03;;;;;;;4.18;2.30;;;;;;;21.32;42.88;99855.59;6271793;28;20711;-75
2024/02/27 12:03:07;;;;;;;5.15;2.38;;;;;;;21.39;44.69;99858.41;6270637;28;20060;-75
2024/02/27 12:06:09;;;;;;;6.13;2.80;;;;;;;21.14;43.19;99866.38;6271710;28;20405;-71
2024/02/27 12:09:12;;;;;;;6.45;2.30;;;;;;;20.96;43.19;99858.63;6270496;28;20447;-71
2024/02/27 12:12:15;;;;;;;16.20;4.70;;;;;;;21.24;43.68;99855.59;6271612;28;20045;-70
2024/02/27 12:15:20;;;;;;;18.90;7.47;;;;;;;21.26;41.98;99854.44;6271808;28;20052;-70
2024/02/27 12:18:21;;;;;;;15.18;6.75;;;;;;;21.19;43.81;99848.16;6270378;28;20048;-70
2024/02/27 12:21:29;;;;;;;8.00;2.53;;;;;;;21.53;42.85;99849.78;6270604;28;20056;-70
2024/02/27 12:24:30;;;;;;;9.27;2.70;;;;;;;21.74;42.19;99843.91;6270172;28;20138;-71
2024/02/27 12:27:37;;;;;;;7.83;2.53;;;;;;;21.57;40.75;99843.13;6270130;28;20045;-71
2024/02/27 12:30:45;;;;;;;4.28;2.00;;;;;;;21.59;41.23;99841.13;6270160;28;20161;-70
2024/02/27 12:33:49;;;;;;;5.38;2.50;;;;;;;21.54;40.88;99843.47;6269490;28;20056;-71
2024/02/27 12:36:50;;;;;;;6.05;2.05;;;;;;;21.87;41.91;99841.53;6270969;28;20596;-70
2024/02/27 12:39:54;;;;;;;4.47;2.10;;;;;;;21.91;41.13;99840.19;6269941;28;20177;-70
2024/02/27 12:42:54;;;;;;;14.63;2.28;;;;;;;21.88;40.49;99835.22;6269974;28;20057;-70
2024/02/27 12:46:00;;;;;;;4.07;1.87;;;;;;;21.68;39.27;99839.28;6270999;28;20059;-70
2024/02/27 12:49:01;;;;;;;4.13;1.83;;;;;;;21.92;39.82;99835.72;6271229;28;20067;-70
2024/02/27 12:52:03;;;;;;;9.50;4.40;;;;;;;21.85;40.77;99824.97;6269758;28;20195;-70
2024/02/27 12:55:05;;;;;;;2.92;1.85;;;;;;;21.81;39.34;99820.16;6271022;28;20048;-70
2024/02/27 12:58:06;;;;;;;3.03;1.92;;;;;;;21.69;38.44;99823.19;6270847;28;20087;-71
2024/02/27 13:01:06;;;;;;;5.10;2.30;;;;;;;21.60;38.23;99815.41;6269413;28;20049;-69
2024/02/27 13:04:09;;;;;;;11.87;2.00;;;;;;;21.82;39.42;99819.97;6270909;28;20057;-70
2024/02/27 13:07:10;;;;;;;;;;;;;;;21.93;39.79;99826.75;6271548;28;20044;-71
2024/02/27 13:10:11;;;;;;;15.38;4.78;;;;;;;21.71;39.54;99815.88;6269712;28;20043;-71
2024/02/27 13:13:17;;;;;;;6.40;3.17;;;;;;;21.68;40.46;99810.91;6270670;28;20056;-70
2024/02/27 13:16:18;;;;;;;6.28;2.22;;;;;;;21.75;37.32;99821.69;6270713;28;20067;-70
2024/02/27 13:19:19;;;;;;;7.80;2.00;;;;;;;22.00;38.88;99817.09;6269553;28;20080;-70
2024/02/27 13:22:20;;;;;;;5.35;2.03;;;;;;;21.97;39.09;99820.09;6270815;28;20131;-70
2024/02/27 13:25:20;;;;;;;4.27;1.67;;;;;;;22.08;37.94;99813.56;6270401;28;20053;-70
2024/02/27 13:28:21;;;;;;;5.53;1.70;;;;;;;22.08;37.80;99809.06;6270482;28;20049;-70
2024/02/27 13:31:24;;;;;;;8.90;2.63;;;;;;;22.05;38.13;99811.25;6270636;28;20051;-70
2024/02/27 13:34:25;;;;;;;7.93;2.50;;;;;;;21.87;37.37;99808.84;6270620;28;20278;-70
2024/02/27 13:37:26;;;;;;;4.90;2.03;;;;;;;21.86;38.81;99815.16;6269283;28;20107;-70
2024/02/27 13:40:26;;;;;;;3.57;1.90;;;;;;;21.87;37.92;99812.34;6270381;28;20523;-70
2024/02/27 13:43:27;;;;;;;4.73;2.00;;;;;;;21.61;38.82;99809.13;6269207;28;20131;-70
2024/02/27 13:46:28;;;;;;;12.57;4.77;;;;;;;21.67;38.58;99806.59;6272822;28;20049;-70
2024/02/27 13:49:31;;;;;;;7.03;2.93;;;;;;;21.51;38.34;99798.69;6275326;28;20071;-71
2024/02/27 13:52:32;;;;;;;8.85;2.80;;;;;;;21.51;38.80;99798.69;6275013;28;20048;-71
2024/02/27 13:55:34;;;;;;;4.70;1.87;;;;;;;21.55;37.43;99797.34;6274917;28;20413;-70
2024/02/27 13:58:36;;;;;;;4.00;1.58;;;;;;;21.42;37.96;99795.22;6274794;28;20489;-70
2024/02/27 14:01:37;;;;;;;5.25;1.80;;;;;;;21.52;38.35;99792.41;6273663;28;20057;-71
2024/02/27 14:04:38;;;;;;;7.07;1.80;;;;;;;21.48;39.44;99797.22;6274340;28;20059;-70
2024/02/27 14:07:39;;;;;;;5.00;2.27;;;;;;;21.31;37.92;99790.25;6274832;28;20505;-70
2024/02/27 14:10:41;;;;;;;2.50;1.93;;;;;;;21.18;38.30;99787.28;6274816;28;20049;-70